sensor_id;sensor_type;location;lat;lon;timestamp;temperature;humidity
20759;DHT22;10539;53.686;9.158;2022-10-16T00:01:36;15.20;99.90
20759;DHT22;10539;53.686;9.158;2022-10-16T00:04:02;15.10;99.90
20759;DHT22;10539;53.686;9.158;2022-10-16T00:06:29;15.20;99.90
20759;DHT22;10539;53.686;9.158;2022-10-16T00:08:55;15.20;99.90
20759;DHT22;10539;53.686;9.158;2022-10-16T00:11:23;15.10;99.90
20759;DHT22;10539;53.686;9.158;2022-10-16T00:13:53;15.10;99.90
20759;DHT22;10539;53.686;9.158;2022-10-16T00:16:20;15.10;99.90
20759;DHT22;10539;53.686;9.158;2022-10-16T00:18:46;15.10;99.90
20759;DHT22;10539;53.686;9.158;2022-10-16T00:21:15;15.10;99.90
20759;DHT22;10539;53.686;9.158;2022-10-16T00:23:41;15.10;99.90
20759;DHT22;10539;53.686;9.158;2022-10-16T00:26:10;15.00;99.90
20759;DHT22;10539;53.686;9.158;2022-10-16T00:28:36;15.00;99.90
20759;DHT22;10539;53.686;9.158;2022-10-16T00:31:07;15.00;99.90
20759;DHT22;10539;53.686;9.158;2022-10-16T00:33:34;15.00;99.90
20759;DHT22;10539;53.686;9.158;2022-10-16T00:36:01;15.00;99.90
20759;DHT22;10539;53.686;9.158;2022-10-16T00:38:27;15.00;99.90
20759;DHT22;10539;53.686;9.158;2022-10-16T00:40:53;15.00;99.90
20759;DHT22;10539;53.686;9.158;2022-10-16T00:43:41;15.00;99.90
20759;DHT22;10539;53.686;9.158;2022-10-16T00:46:19;15.00;99.90
20759;DHT22;10539;53.686;9.158;2022-10-16T00:49:00;14.90;99.90
20759;DHT22;10539;53.686;9.158;2022-10-16T00:51:32;14.90;99.90
20759;DHT22;10539;53.686;9.158;2022-10-16T00:53:59;15.00;99.90
20759;DHT22;10539;53.686;9.158;2022-10-16T00:56:25;14.90;99.90
20759;DHT22;10539;53.686;9.158;2022-10-16T00:58:51;14.90;99.90
20759;DHT22;10539;53.686;9.158;2022-10-16T01:01:17;14.90;99.90
20759;DHT22;10539;53.686;9.158;2022-10-16T01:03:43;14.90;99.90
20759;DHT22;10539;53.686;9.158;2022-10-16T01:06:28;14.90;99.90
20759;DHT22;10539;53.686;9.158;2022-10-16T01:14:53;14.80;99.90
20759;DHT22;10539;53.686;9.158;2022-10-16T01:17:27;14.80;99.90
20759;DHT22;10539;53.686;9.158;2022-10-16T01:20:20;14.80;99.90
20759;DHT22;10539;53.686;9.158;2022-10-16T01:28:42;14.70;99.90
20759;DHT22;10539;53.686;9.158;2022-10-16T01:31:10;14.70;99.90
20759;DHT22;10539;53.686;9.158;2022-10-16T01:33:42;14.70;99.90
20759;DHT22;10539;53.686;9.158;2022-10-16T01:36:13;14.70;99.90
20759;DHT22;10539;53.686;9.158;2022-10-16T01:38:41;14.70;99.90
20759;DHT22;10539;53.686;9.158;2022-10-16T01:41:19;14.70;99.90
20759;DHT22;10539;53.686;9.158;2022-10-16T01:43:50;14.70;99.90
20759;DHT22;10539;53.686;9.158;2022-10-16T01:46:21;14.60;99.90
20759;DHT22;10539;53.686;9.158;2022-10-16T01:48:48;14.70;99.90
20759;DHT22;10539;53.686;9.158;2022-10-16T01:51:16;14.60;99.90
20759;DHT22;10539;53.686;9.158;2022-10-16T01:53:46;14.60;99.90
20759;DHT22;10539;53.686;9.158;2022-10-16T01:56:13;14.60;99.90
20759;DHT22;10539;53.686;9.158;2022-10-16T01:58:47;14.60;99.90
20759;DHT22;10539;53.686;9.158;2022-10-16T02:01:16;14.60;99.90
20759;DHT22;10539;53.686;9.158;2022-10-16T02:03:44;14.60;99.90
20759;DHT22;10539;53.686;9.158;2022-10-16T02:06:12;14.60;99.90
20759;DHT22;10539;53.686;9.158;2022-10-16T02:08:38;14.60;99.90
20759;DHT22;10539;53.686;9.158;2022-10-16T02:11:06;14.50;99.90
20759;DHT22;10539;53.686;9.158;2022-10-16T02:13:55;14.50;99.90
20759;DHT22;10539;53.686;9.158;2022-10-16T02:16:43;14.50;99.90
20759;DHT22;10539;53.686;9.158;2022-10-16T02:19:10;14.50;99.90
20759;DHT22;10539;53.686;9.158;2022-10-16T02:21:58;14.40;99.90
20759;DHT22;10539;53.686;9.158;2022-10-16T02:29:28;14.40;99.90
20759;DHT22;10539;53.686;9.158;2022-10-16T02:31:58;14.40;99.90
20759;DHT22;10539;53.686;9.158;2022-10-16T02:34:25;14.30;99.90
20759;DHT22;10539;53.686;9.158;2022-10-16T02:36:53;14.30;99.90
20759;DHT22;10539;53.686;9.158;2022-10-16T02:39:20;14.30;99.90
20759;DHT22;10539;53.686;9.158;2022-10-16T02:41:47;14.20;99.90
20759;DHT22;10539;53.686;9.158;2022-10-16T02:44:13;14.20;99.90
20759;DHT22;10539;53.686;9.158;2022-10-16T02:46:38;14.20;99.90
20759;DHT22;10539;53.686;9.158;2022-10-16T02:49:04;14.20;99.90
20759;DHT22;10539;53.686;9.158;2022-10-16T02:51:30;14.20;99.90
20759;DHT22;10539;53.686;9.158;2022-10-16T02:53:56;14.20;99.90
20759;DHT22;10539;53.686;9.158;2022-10-16T02:56:22;14.10;99.90
20759;DHT22;10539;53.686;9.158;2022-10-16T02:58:47;14.10;99.90
20759;DHT22;10539;53.686;9.158;2022-10-16T03:01:13;14.10;99.90
20759;DHT22;10539;53.686;9.158;2022-10-16T03:03:42;14.10;99.90
20759;DHT22;10539;53.686;9.158;2022-10-16T03:06:07;14.00;99.90
20759;DHT22;10539;53.686;9.158;2022-10-16T03:08:33;14.00;99.90
20759;DHT22;10539;53.686;9.158;2022-10-16T03:10:59;13.90;99.90
20759;DHT22;10539;53.686;9.158;2022-10-16T03:13:25;13.90;99.90
20759;DHT22;10539;53.686;9.158;2022-10-16T03:15:51;13.90;99.90
20759;DHT22;10539;53.686;9.158;2022-10-16T03:18:17;13.90;99.90
20759;DHT22;10539;53.686;9.158;2022-10-16T03:20:43;13.90;99.90
20759;DHT22;10539;53.686;9.158;2022-10-16T03:23:09;13.80;99.90
20759;DHT22;10539;53.686;9.158;2022-10-16T03:25:35;13.80;99.90
20759;DHT22;10539;53.686;9.158;2022-10-16T03:28:01;13.80;99.90
20759;DHT22;10539;53.686;9.158;2022-10-16T03:30:27;13.80;99.90
20759;DHT22;10539;53.686;9.158;2022-10-16T03:32:53;13.80;99.90
20759;DHT22;10539;53.686;9.158;2022-10-16T03:35:23;13.80;99.90
20759;DHT22;10539;53.686;9.158;2022-10-16T03:37:49;13.80;99.90
20759;DHT22;10539;53.686;9.158;2022-10-16T03:40:15;13.70;99.90
20759;DHT22;10539;53.686;9.158;2022-10-16T03:42:44;13.70;99.90
20759;DHT22;10539;53.686;9.158;2022-10-16T03:45:12;13.70;99.90
20759;DHT22;10539;53.686;9.158;2022-10-16T03:47:39;13.70;99.90
20759;DHT22;10539;53.686;9.158;2022-10-16T03:50:05;13.70;99.90
20759;DHT22;10539;53.686;9.158;2022-10-16T03:52:33;13.70;99.90
20759;DHT22;10539;53.686;9.158;2022-10-16T03:54:59;13.70;99.90
20759;DHT22;10539;53.686;9.158;2022-10-16T03:57:25;13.80;99.90
20759;DHT22;10539;53.686;9.158;2022-10-16T03:59:51;13.80;99.90
20759;DHT22;10539;53.686;9.158;2022-10-16T04:02:16;13.80;99.90
20759;DHT22;10539;53.686;9.158;2022-10-16T04:04:42;13.80;99.90
20759;DHT22;10539;53.686;9.158;2022-10-16T04:07:11;13.90;99.90
20759;DHT22;10539;53.686;9.158;2022-10-16T04:09:36;13.90;99.90
20759;DHT22;10539;53.686;9.158;2022-10-16T04:12:02;13.90;99.90
20759;DHT22;10539;53.686;9.158;2022-10-16T04:14:28;13.90;99.90
20759;DHT22;10539;53.686;9.158;2022-10-16T04:16:54;13.90;99.90
20759;DHT22;10539;53.686;9.158;2022-10-16T04:19:19;13.90;99.90
20759;DHT22;10539;53.686;9.158;2022-10-16T04:21:45;13.90;99.90
20759;DHT22;10539;53.686;9.158;2022-10-16T04:24:11;13.90;99.90
20759;DHT22;10539;53.686;9.158;2022-10-16T04:26:38;13.90;99.90
20759;DHT22;10539;53.686;9.158;2022-10-16T04:29:05;13.90;99.90
20759;DHT22;10539;53.686;9.158;2022-10-16T04:31:35;13.90;99.90
20759;DHT22;10539;53.686;9.158;2022-10-16T04:34:01;13.90;99.90
20759;DHT22;10539;53.686;9.158;2022-10-16T04:36:26;13.90;99.90
20759;DHT22;10539;53.686;9.158;2022-10-16T04:38:55;13.90;99.90
20759;DHT22;10539;53.686;9.158;2022-10-16T04:41:21;13.90;99.90
20759;DHT22;10539;53.686;9.158;2022-10-16T04:43:50;13.90;99.90
20759;DHT22;10539;53.686;9.158;2022-10-16T04:46:17;13.90;99.90
20759;DHT22;10539;53.686;9.158;2022-10-16T04:48:44;13.90;99.90
20759;DHT22;10539;53.686;9.158;2022-10-16T04:51:11;13.90;99.90
20759;DHT22;10539;53.686;9.158;2022-10-16T04:53:37;13.90;99.90
20759;DHT22;10539;53.686;9.158;2022-10-16T04:56:07;13.90;99.90
20759;DHT22;10539;53.686;9.158;2022-10-16T04:58:33;13.90;99.90
20759;DHT22;10539;53.686;9.158;2022-10-16T05:00:59;13.90;99.90
20759;DHT22;10539;53.686;9.158;2022-10-16T05:03:28;13.90;99.90
20759;DHT22;10539;53.686;9.158;2022-10-16T05:05:54;13.90;99.90
20759;DHT22;10539;53.686;9.158;2022-10-16T05:08:20;13.90;99.90
20759;DHT22;10539;53.686;9.158;2022-10-16T05:10:46;13.90;99.90
20759;DHT22;10539;53.686;9.158;2022-10-16T05:13:12;13.90;99.90
20759;DHT22;10539;53.686;9.158;2022-10-16T05:15:38;13.90;99.90
20759;DHT22;10539;53.686;9.158;2022-10-16T05:18:04;14.00;99.90
20759;DHT22;10539;53.686;9.158;2022-10-16T05:20:29;14.00;99.90
20759;DHT22;10539;53.686;9.158;2022-10-16T05:22:55;14.00;99.90
20759;DHT22;10539;53.686;9.158;2022-10-16T05:25:21;14.00;99.90
20759;DHT22;10539;53.686;9.158;2022-10-16T05:27:48;14.10;99.90
20759;DHT22;10539;53.686;9.158;2022-10-16T05:30:14;14.00;99.90
20759;DHT22;10539;53.686;9.158;2022-10-16T05:32:40;14.10;99.90
20759;DHT22;10539;53.686;9.158;2022-10-16T05:35:06;14.10;99.90
20759;DHT22;10539;53.686;9.158;2022-10-16T05:37:32;14.20;99.90
20759;DHT22;10539;53.686;9.158;2022-10-16T05:39:58;14.20;99.90
20759;DHT22;10539;53.686;9.158;2022-10-16T05:42:24;14.20;99.90
20759;DHT22;10539;53.686;9.158;2022-10-16T05:44:49;14.20;99.90
20759;DHT22;10539;53.686;9.158;2022-10-16T05:47:15;14.20;99.90
20759;DHT22;10539;53.686;9.158;2022-10-16T05:49:41;14.20;99.90
20759;DHT22;10539;53.686;9.158;2022-10-16T05:52:06;14.20;99.90
20759;DHT22;10539;53.686;9.158;2022-10-16T05:54:32;14.10;99.90
20759;DHT22;10539;53.686;9.158;2022-10-16T05:56:58;14.10;99.90
20759;DHT22;10539;53.686;9.158;2022-10-16T05:59:23;14.10;99.90
20759;DHT22;10539;53.686;9.158;2022-10-16T06:01:49;14.00;99.90
20759;DHT22;10539;53.686;9.158;2022-10-16T06:04:15;14.00;99.90
20759;DHT22;10539;53.686;9.158;2022-10-16T06:06:41;13.90;99.90
20759;DHT22;10539;53.686;9.158;2022-10-16T06:09:06;13.90;99.90
20759;DHT22;10539;53.686;9.158;2022-10-16T06:11:33;13.90;99.90
20759;DHT22;10539;53.686;9.158;2022-10-16T06:14:01;13.90;99.90
20759;DHT22;10539;53.686;9.158;2022-10-16T06:16:28;13.90;99.90
20759;DHT22;10539;53.686;9.158;2022-10-16T06:18:55;13.90;99.90
20759;DHT22;10539;53.686;9.158;2022-10-16T06:21:23;14.00;99.90
20759;DHT22;10539;53.686;9.158;2022-10-16T06:23:53;14.00;99.90
20759;DHT22;10539;53.686;9.158;2022-10-16T06:26:21;14.00;99.90
20759;DHT22;10539;53.686;9.158;2022-10-16T06:28:48;14.00;99.90
20759;DHT22;10539;53.686;9.158;2022-10-16T06:31:15;14.10;99.90
20759;DHT22;10539;53.686;9.158;2022-10-16T06:33:41;14.10;99.90
20759;DHT22;10539;53.686;9.158;2022-10-16T06:36:13;14.10;99.90
20759;DHT22;10539;53.686;9.158;2022-10-16T06:38:40;14.10;99.90
20759;DHT22;10539;53.686;9.158;2022-10-16T06:41:07;14.00;99.90
20759;DHT22;10539;53.686;9.158;2022-10-16T06:43:33;14.00;99.90
20759;DHT22;10539;53.686;9.158;2022-10-16T06:46:04;14.00;99.90
20759;DHT22;10539;53.686;9.158;2022-10-16T06:48:30;14.00;99.90
20759;DHT22;10539;53.686;9.158;2022-10-16T06:51:03;14.00;99.90
20759;DHT22;10539;53.686;9.158;2022-10-16T06:53:31;14.00;99.90
20759;DHT22;10539;53.686;9.158;2022-10-16T06:55:58;13.90;99.90
20759;DHT22;10539;53.686;9.158;2022-10-16T06:58:23;13.90;99.90
20759;DHT22;10539;53.686;9.158;2022-10-16T07:00:55;13.90;99.90
20759;DHT22;10539;53.686;9.158;2022-10-16T07:03:21;14.10;99.90
20759;DHT22;10539;53.686;9.158;2022-10-16T07:05:47;14.20;99.90
20759;DHT22;10539;53.686;9.158;2022-10-16T07:08:13;14.20;99.90
20759;DHT22;10539;53.686;9.158;2022-10-16T07:10:38;14.20;99.90
20759;DHT22;10539;53.686;9.158;2022-10-16T07:13:04;14.20;99.90
20759;DHT22;10539;53.686;9.158;2022-10-16T07:15:30;14.20;99.90
20759;DHT22;10539;53.686;9.158;2022-10-16T07:17:55;14.30;99.90
20759;DHT22;10539;53.686;9.158;2022-10-16T07:20:21;14.40;99.90
20759;DHT22;10539;53.686;9.158;2022-10-16T07:22:47;14.60;99.90
20759;DHT22;10539;53.686;9.158;2022-10-16T07:25:12;14.70;99.90
20759;DHT22;10539;53.686;9.158;2022-10-16T07:27:38;14.90;99.90
20759;DHT22;10539;53.686;9.158;2022-10-16T07:30:05;15.00;99.90
20759;DHT22;10539;53.686;9.158;2022-10-16T07:32:31;15.10;99.90
20759;DHT22;10539;53.686;9.158;2022-10-16T07:34:57;15.20;99.90
20759;DHT22;10539;53.686;9.158;2022-10-16T07:37:22;15.10;99.90
20759;DHT22;10539;53.686;9.158;2022-10-16T07:39:48;15.10;99.90
20759;DHT22;10539;53.686;9.158;2022-10-16T07:42:14;15.00;99.90
20759;DHT22;10539;53.686;9.158;2022-10-16T07:44:40;15.00;99.90
20759;DHT22;10539;53.686;9.158;2022-10-16T07:47:07;15.00;99.90
20759;DHT22;10539;53.686;9.158;2022-10-16T07:49:33;15.10;99.90
20759;DHT22;10539;53.686;9.158;2022-10-16T07:51:58;15.10;99.90
20759;DHT22;10539;53.686;9.158;2022-10-16T07:54:24;15.20;99.90
20759;DHT22;10539;53.686;9.158;2022-10-16T07:56:50;15.20;99.90
20759;DHT22;10539;53.686;9.158;2022-10-16T07:59:16;15.20;99.90
20759;DHT22;10539;53.686;9.158;2022-10-16T08:01:42;15.30;99.90
20759;DHT22;10539;53.686;9.158;2022-10-16T08:04:08;15.30;99.90
20759;DHT22;10539;53.686;9.158;2022-10-16T08:06:38;15.40;99.90
20759;DHT22;10539;53.686;9.158;2022-10-16T08:09:05;15.50;99.90
20759;DHT22;10539;53.686;9.158;2022-10-16T08:11:31;15.60;99.90
20759;DHT22;10539;53.686;9.158;2022-10-16T08:13:57;15.60;99.90
20759;DHT22;10539;53.686;9.158;2022-10-16T08:16:23;15.60;99.90
20759;DHT22;10539;53.686;9.158;2022-10-16T08:18:49;15.60;99.90
20759;DHT22;10539;53.686;9.158;2022-10-16T08:21:21;15.60;99.90
20759;DHT22;10539;53.686;9.158;2022-10-16T08:23:48;15.60;99.90
20759;DHT22;10539;53.686;9.158;2022-10-16T08:26:14;15.70;99.90
20759;DHT22;10539;53.686;9.158;2022-10-16T08:28:40;15.70;99.90
20759;DHT22;10539;53.686;9.158;2022-10-16T08:31:11;15.60;99.90
20759;DHT22;10539;53.686;9.158;2022-10-16T08:33:38;15.60;99.90
20759;DHT22;10539;53.686;9.158;2022-10-16T08:36:05;15.60;99.90
20759;DHT22;10539;53.686;9.158;2022-10-16T08:38:31;15.60;99.90
20759;DHT22;10539;53.686;9.158;2022-10-16T08:46:41;16.00;99.90
20759;DHT22;10539;53.686;9.158;2022-10-16T08:49:11;16.10;99.90
20759;DHT22;10539;53.686;9.158;2022-10-16T08:51:39;16.20;99.90
20759;DHT22;10539;53.686;9.158;2022-10-16T08:54:29;16.30;99.90
20759;DHT22;10539;53.686;9.158;2022-10-16T08:56:57;16.30;99.90
20759;DHT22;10539;53.686;9.158;2022-10-16T08:59:26;16.40;99.90
20759;DHT22;10539;53.686;9.158;2022-10-16T09:01:52;16.50;99.90
20759;DHT22;10539;53.686;9.158;2022-10-16T09:04:43;16.60;99.90
20759;DHT22;10539;53.686;9.158;2022-10-16T09:10:02;16.80;99.90
20759;DHT22;10539;53.686;9.158;2022-10-16T09:12:40;16.80;99.90
20759;DHT22;10539;53.686;9.158;2022-10-16T09:21:05;17.00;99.90
20759;DHT22;10539;53.686;9.158;2022-10-16T09:23:36;17.10;99.90
20759;DHT22;10539;53.686;9.158;2022-10-16T09:26:02;17.10;99.90
20759;DHT22;10539;53.686;9.158;2022-10-16T09:28:29;17.00;99.90
20759;DHT22;10539;53.686;9.158;2022-10-16T09:30:55;17.00;99.90
20759;DHT22;10539;53.686;9.158;2022-10-16T09:33:25;17.00;99.90
20759;DHT22;10539;53.686;9.158;2022-10-16T09:35:54;17.00;99.90
20759;DHT22;10539;53.686;9.158;2022-10-16T09:38:33;17.20;99.90
20759;DHT22;10539;53.686;9.158;2022-10-16T09:43:59;17.50;99.90
20759;DHT22;10539;53.686;9.158;2022-10-16T09:46:36;17.70;99.90
20759;DHT22;10539;53.686;9.158;2022-10-16T09:49:20;17.90;99.90
20759;DHT22;10539;53.686;9.158;2022-10-16T09:51:46;17.90;99.90
20759;DHT22;10539;53.686;9.158;2022-10-16T09:54:17;17.90;99.90
20759;DHT22;10539;53.686;9.158;2022-10-16T09:56:43;17.80;99.90
20759;DHT22;10539;53.686;9.158;2022-10-16T09:59:29;17.80;99.90
20759;DHT22;10539;53.686;9.158;2022-10-16T10:01:56;17.70;99.90
20759;DHT22;10539;53.686;9.158;2022-10-16T10:04:38;17.70;99.90
20759;DHT22;10539;53.686;9.158;2022-10-16T10:07:05;17.70;99.90
20759;DHT22;10539;53.686;9.158;2022-10-16T10:09:37;17.70;99.90
20759;DHT22;10539;53.686;9.158;2022-10-16T10:12:05;17.80;99.90
20759;DHT22;10539;53.686;9.158;2022-10-16T10:14:46;17.90;99.90
20759;DHT22;10539;53.686;9.158;2022-10-16T10:17:19;18.00;99.90
20759;DHT22;10539;53.686;9.158;2022-10-16T10:25:13;18.10;99.90
20759;DHT22;10539;53.686;9.158;2022-10-16T10:44:22;18.00;99.90
20759;DHT22;10539;53.686;9.158;2022-10-16T10:46:58;18.00;99.90
20759;DHT22;10539;53.686;9.158;2022-10-16T11:00:35;18.10;99.90
20759;DHT22;10539;53.686;9.158;2022-10-16T11:03:24;18.20;99.90
20759;DHT22;10539;53.686;9.158;2022-10-16T11:06:04;18.20;99.90
20759;DHT22;10539;53.686;9.158;2022-10-16T11:09:41;18.20;99.90
20759;DHT22;10539;53.686;9.158;2022-10-16T11:12:02;18.20;99.90
20759;DHT22;10539;53.686;9.158;2022-10-16T11:14:49;18.20;99.90
20759;DHT22;10539;53.686;9.158;2022-10-16T11:17:30;18.30;99.90
20759;DHT22;10539;53.686;9.158;2022-10-16T11:20:05;18.20;99.90
20759;DHT22;10539;53.686;9.158;2022-10-16T11:22:40;18.30;99.90
20759;DHT22;10539;53.686;9.158;2022-10-16T11:25:26;18.30;99.90
20759;DHT22;10539;53.686;9.158;2022-10-16T11:28:13;18.30;99.90
20759;DHT22;10539;53.686;9.158;2022-10-16T11:30:55;18.40;99.90
20759;DHT22;10539;53.686;9.158;2022-10-16T11:36:14;18.50;99.90
20759;DHT22;10539;53.686;9.158;2022-10-16T11:39:19;18.60;99.90
20759;DHT22;10539;53.686;9.158;2022-10-16T11:42:16;18.60;99.90
20759;DHT22;10539;53.686;9.158;2022-10-16T11:45:03;18.70;99.90
20759;DHT22;10539;53.686;9.158;2022-10-16T11:53:13;18.40;99.90
20759;DHT22;10539;53.686;9.158;2022-10-16T11:55:43;18.30;99.90
20759;DHT22;10539;53.686;9.158;2022-10-16T12:00:59;18.20;99.90
20759;DHT22;10539;53.686;9.158;2022-10-16T12:03:45;18.10;99.90
20759;DHT22;10539;53.686;9.158;2022-10-16T12:06:23;18.10;99.90
20759;DHT22;10539;53.686;9.158;2022-10-16T12:08:53;18.00;99.90
20759;DHT22;10539;53.686;9.158;2022-10-16T12:16:50;18.00;99.90
20759;DHT22;10539;53.686;9.158;2022-10-16T12:19:19;18.00;99.90
20759;DHT22;10539;53.686;9.158;2022-10-16T12:21:45;18.00;99.90
20759;DHT22;10539;53.686;9.158;2022-10-16T12:24:34;18.00;99.90
20759;DHT22;10539;53.686;9.158;2022-10-16T12:27:02;18.00;99.90
20759;DHT22;10539;53.686;9.158;2022-10-16T12:29:37;18.00;99.90
20759;DHT22;10539;53.686;9.158;2022-10-16T12:32:06;18.10;99.90
20759;DHT22;10539;53.686;9.158;2022-10-16T12:34:44;18.10;99.90
20759;DHT22;10539;53.686;9.158;2022-10-16T12:39:45;18.20;99.90
20759;DHT22;10539;53.686;9.158;2022-10-16T12:42:33;18.30;99.90
20759;DHT22;10539;53.686;9.158;2022-10-16T12:45:00;18.40;99.90
20759;DHT22;10539;53.686;9.158;2022-10-16T12:49:58;18.50;99.90
20759;DHT22;10539;53.686;9.158;2022-10-16T12:55:00;18.50;99.90
20759;DHT22;10539;53.686;9.158;2022-10-16T13:00:26;18.40;99.90
20759;DHT22;10539;53.686;9.158;2022-10-16T13:19:59;18.30;99.90
20759;DHT22;10539;53.686;9.158;2022-10-16T13:28:14;18.20;99.90
20759;DHT22;10539;53.686;9.158;2022-10-16T13:30:52;18.20;99.90
20759;DHT22;10539;53.686;9.158;2022-10-16T13:33:34;18.20;99.90
20759;DHT22;10539;53.686;9.158;2022-10-16T13:36:01;18.20;99.90
20759;DHT22;10539;53.686;9.158;2022-10-16T13:38:32;18.20;99.90
20759;DHT22;10539;53.686;9.158;2022-10-16T13:40:59;18.20;99.90
20759;DHT22;10539;53.686;9.158;2022-10-16T13:43:33;18.20;99.90
20759;DHT22;10539;53.686;9.158;2022-10-16T13:48:28;18.20;99.90
20759;DHT22;10539;53.686;9.158;2022-10-16T13:51:12;18.20;99.90
20759;DHT22;10539;53.686;9.158;2022-10-16T13:53:39;18.20;99.90
20759;DHT22;10539;53.686;9.158;2022-10-16T13:56:10;18.20;99.90
20759;DHT22;10539;53.686;9.158;2022-10-16T13:58:36;18.20;99.90
20759;DHT22;10539;53.686;9.158;2022-10-16T14:01:05;18.20;99.90
20759;DHT22;10539;53.686;9.158;2022-10-16T14:03:32;18.20;99.90
20759;DHT22;10539;53.686;9.158;2022-10-16T14:06:01;18.20;99.90
20759;DHT22;10539;53.686;9.158;2022-10-16T14:08:29;18.20;99.90
20759;DHT22;10539;53.686;9.158;2022-10-16T14:11:04;18.20;99.90
20759;DHT22;10539;53.686;9.158;2022-10-16T14:13:40;18.20;99.90
20759;DHT22;10539;53.686;9.158;2022-10-16T14:16:10;18.20;99.90
20759;DHT22;10539;53.686;9.158;2022-10-16T14:18:38;18.20;99.90
20759;DHT22;10539;53.686;9.158;2022-10-16T14:21:13;18.20;99.90
20759;DHT22;10539;53.686;9.158;2022-10-16T14:23:41;18.20;99.90
20759;DHT22;10539;53.686;9.158;2022-10-16T14:28:40;18.20;99.90
20759;DHT22;10539;53.686;9.158;2022-10-16T14:31:30;18.20;99.90
20759;DHT22;10539;53.686;9.158;2022-10-16T14:33:57;18.20;99.90
20759;DHT22;10539;53.686;9.158;2022-10-16T14:36:24;18.20;99.90
20759;DHT22;10539;53.686;9.158;2022-10-16T14:39:00;18.20;99.90
20759;DHT22;10539;53.686;9.158;2022-10-16T14:41:28;18.10;99.90
20759;DHT22;10539;53.686;9.158;2022-10-16T14:44:04;18.10;99.90
20759;DHT22;10539;53.686;9.158;2022-10-16T14:46:35;18.10;99.90
20759;DHT22;10539;53.686;9.158;2022-10-16T14:51:41;18.10;99.90
20759;DHT22;10539;53.686;9.158;2022-10-16T14:54:16;18.00;99.90
20759;DHT22;10539;53.686;9.158;2022-10-16T14:59:24;18.10;99.90
20759;DHT22;10539;53.686;9.158;2022-10-16T15:01:50;18.10;99.90
20759;DHT22;10539;53.686;9.158;2022-10-16T15:04:16;18.10;99.90
20759;DHT22;10539;53.686;9.158;2022-10-16T15:06:43;18.00;99.90
20759;DHT22;10539;53.686;9.158;2022-10-16T15:09:09;18.00;99.90
20759;DHT22;10539;53.686;9.158;2022-10-16T15:11:34;18.00;99.90
20759;DHT22;10539;53.686;9.158;2022-10-16T15:14:01;18.10;99.90
20759;DHT22;10539;53.686;9.158;2022-10-16T15:16:27;18.10;99.90
20759;DHT22;10539;53.686;9.158;2022-10-16T15:18:52;18.10;99.90
20759;DHT22;10539;53.686;9.158;2022-10-16T15:21:30;18.00;99.90
20759;DHT22;10539;53.686;9.158;2022-10-16T15:23:56;18.00;99.90
20759;DHT22;10539;53.686;9.158;2022-10-16T15:26:24;17.90;99.90
20759;DHT22;10539;53.686;9.158;2022-10-16T15:28:50;17.90;99.90
20759;DHT22;10539;53.686;9.158;2022-10-16T15:31:16;17.90;99.90
20759;DHT22;10539;53.686;9.158;2022-10-16T15:33:41;17.80;99.90
20759;DHT22;10539;53.686;9.158;2022-10-16T15:36:07;17.80;99.90
20759;DHT22;10539;53.686;9.158;2022-10-16T15:38:34;17.70;99.90
20759;DHT22;10539;53.686;9.158;2022-10-16T15:41:00;17.70;99.90
20759;DHT22;10539;53.686;9.158;2022-10-16T15:43:25;17.60;99.90
20759;DHT22;10539;53.686;9.158;2022-10-16T15:46:03;17.60;99.90
20759;DHT22;10539;53.686;9.158;2022-10-16T15:48:30;17.50;99.90
20759;DHT22;10539;53.686;9.158;2022-10-16T15:50:56;17.50;99.90
20759;DHT22;10539;53.686;9.158;2022-10-16T15:53:22;17.50;99.90
20759;DHT22;10539;53.686;9.158;2022-10-16T15:55:48;17.40;99.90
20759;DHT22;10539;53.686;9.158;2022-10-16T15:58:13;17.40;99.90
20759;DHT22;10539;53.686;9.158;2022-10-16T16:00:39;17.40;99.90
20759;DHT22;10539;53.686;9.158;2022-10-16T16:03:05;17.40;99.90
20759;DHT22;10539;53.686;9.158;2022-10-16T16:05:30;17.30;99.90
20759;DHT22;10539;53.686;9.158;2022-10-16T16:07:57;17.30;99.90
20759;DHT22;10539;53.686;9.158;2022-10-16T16:10:22;17.30;99.90
20759;DHT22;10539;53.686;9.158;2022-10-16T16:12:49;17.20;99.90
20759;DHT22;10539;53.686;9.158;2022-10-16T16:15:21;17.20;99.90
20759;DHT22;10539;53.686;9.158;2022-10-16T16:17:48;17.20;99.90
20759;DHT22;10539;53.686;9.158;2022-10-16T16:20:14;17.20;99.90
20759;DHT22;10539;53.686;9.158;2022-10-16T16:22:40;17.10;99.90
20759;DHT22;10539;53.686;9.158;2022-10-16T16:25:06;17.10;99.90
20759;DHT22;10539;53.686;9.158;2022-10-16T16:27:32;17.10;99.90
20759;DHT22;10539;53.686;9.158;2022-10-16T16:30:05;17.10;99.90
20759;DHT22;10539;53.686;9.158;2022-10-16T16:32:33;17.00;99.90
20759;DHT22;10539;53.686;9.158;2022-10-16T16:34:59;17.00;99.90
20759;DHT22;10539;53.686;9.158;2022-10-16T16:37:25;17.00;99.90
20759;DHT22;10539;53.686;9.158;2022-10-16T16:39:51;16.90;99.90
20759;DHT22;10539;53.686;9.158;2022-10-16T16:42:17;16.90;99.90
20759;DHT22;10539;53.686;9.158;2022-10-16T16:44:42;16.90;99.90
20759;DHT22;10539;53.686;9.158;2022-10-16T16:47:09;16.90;99.90
20759;DHT22;10539;53.686;9.158;2022-10-16T16:49:35;16.80;99.90
20759;DHT22;10539;53.686;9.158;2022-10-16T16:52:01;16.80;99.90
20759;DHT22;10539;53.686;9.158;2022-10-16T16:54:26;16.80;99.90
20759;DHT22;10539;53.686;9.158;2022-10-16T16:56:52;16.80;99.90
20759;DHT22;10539;53.686;9.158;2022-10-16T16:59:19;16.70;99.90
20759;DHT22;10539;53.686;9.158;2022-10-16T17:01:46;16.70;99.90
20759;DHT22;10539;53.686;9.158;2022-10-16T17:04:12;16.70;99.90
20759;DHT22;10539;53.686;9.158;2022-10-16T17:06:40;16.70;99.90
20759;DHT22;10539;53.686;9.158;2022-10-16T17:09:07;16.70;99.90
20759;DHT22;10539;53.686;9.158;2022-10-16T17:11:33;16.60;99.90
20759;DHT22;10539;53.686;9.158;2022-10-16T17:14:00;16.70;99.90
20759;DHT22;10539;53.686;9.158;2022-10-16T17:16:29;16.60;99.90
20759;DHT22;10539;53.686;9.158;2022-10-16T17:18:58;16.60;99.90
20759;DHT22;10539;53.686;9.158;2022-10-16T17:21:24;16.50;99.90
20759;DHT22;10539;53.686;9.158;2022-10-16T17:23:51;16.50;99.90
20759;DHT22;10539;53.686;9.158;2022-10-16T17:26:18;16.50;99.90
20759;DHT22;10539;53.686;9.158;2022-10-16T17:28:44;16.40;99.90
20759;DHT22;10539;53.686;9.158;2022-10-16T17:31:15;16.30;99.90
20759;DHT22;10539;53.686;9.158;2022-10-16T17:33:41;16.30;99.90
20759;DHT22;10539;53.686;9.158;2022-10-16T17:36:07;16.30;99.90
20759;DHT22;10539;53.686;9.158;2022-10-16T17:38:34;16.30;99.90
20759;DHT22;10539;53.686;9.158;2022-10-16T17:41:11;16.30;99.90
20759;DHT22;10539;53.686;9.158;2022-10-16T17:43:38;16.30;99.90
20759;DHT22;10539;53.686;9.158;2022-10-16T17:46:04;16.30;99.90
20759;DHT22;10539;53.686;9.158;2022-10-16T17:48:30;16.30;99.90
20759;DHT22;10539;53.686;9.158;2022-10-16T17:50:56;16.30;99.90